Time;durP1;ratioP1;P1;durP2;ratioP2;P2;SDS_P1;SDS_P2;PMS_P1;PMS_P2;Temp;Humidity;BMP_temperature;BMP_pressure;BME280_temperature;BME280_humidity;BME280_pressure;Samples;Min_cycle;Max_cycle;Signal;HPM_P1;HPM_P2
2022/10/12 00:02:19;;;;;;;16.62;11.45;;;;;;;8.28;67.53;101098.27;1695177;83;21125;-61
2022/10/12 00:04:45;;;;;;;15.75;12.45;;;;;;;8.38;67.43;101098.09;1694745;83;21125;-61
2022/10/12 00:07:12;;;;;;;19.77;13.08;;;;;;;8.44;67.15;101100.84;1696820;83;21547;-61
2022/10/12 00:09:38;;;;;;;16.93;12.58;;;;;;;8.45;67.05;101104.69;1696821;84;22067;-61
2022/10/12 00:12:05;;;;;;;24.02;12.07;;;;;;;8.46;67.00;101099.00;1697088;82;21339;-61
2022/10/12 00:14:35;;;;;;;19.60;13.22;;;;;;;8.47;67.27;101102.84;1697987;84;21561;-61
2022/10/12 00:17:03;;;;;;;18.17;11.97;;;;;;;8.49;67.19;101098.78;1695178;82;21014;-61
2022/10/12 00:19:29;;;;;;;21.82;13.03;;;;;;;8.53;67.27;101095.89;1694280;83;21050;-61
2022/10/12 00:21:56;;;;;;;23.02;14.50;;;;;;;8.60;67.33;101095.06;1697956;82;21259;-61
2022/10/12 00:24:22;;;;;;;24.55;14.05;;;;;;;8.67;67.40;101100.30;1694103;82;21046;-61
2022/10/12 00:26:50;;;;;;;23.80;15.20;;;;;;;8.68;67.29;101099.38;1693008;82;21061;-61
2022/10/12 00:29:16;;;;;;;21.57;14.07;;;;;;;8.67;67.05;101096.36;1674050;83;21087;-61
2022/10/12 00:31:43;;;;;;;21.97;14.93;;;;;;;8.66;66.90;101102.56;1669345;83;21020;-61
2022/10/12 00:34:09;;;;;;;26.12;15.08;;;;;;;8.64;66.74;101105.77;1675622;83;21241;-61
2022/10/12 00:36:36;;;;;;;20.02;14.23;;;;;;;8.61;66.69;101105.07;1660310;84;21063;-61
2022/10/12 00:39:05;;;;;;;23.38;14.38;;;;;;;8.60;66.68;101108.17;1669904;83;21039;-61
2022/10/12 00:41:34;;;;;;;22.13;14.28;;;;;;;8.66;66.51;101106.98;1669162;83;20998;-61
2022/10/12 00:44:01;;;;;;;20.62;13.88;;;;;;;8.69;66.45;101108.95;1669381;85;21577;-61
2022/10/12 00:46:41;;;;;;;22.22;13.78;;;;;;;8.70;66.33;101105.37;1661140;84;22161;-61
2022/10/12 00:49:13;;;;;;;21.07;12.47;;;;;;;8.74;66.20;101112.13;1668921;85;21091;-61
2022/10/12 00:51:41;;;;;;;19.55;12.18;;;;;;;8.75;66.07;101107.72;1665895;83;21028;-61
2022/10/12 00:54:11;;;;;;;20.05;13.43;;;;;;;8.75;65.97;101109.03;1697236;83;21509;-61
2022/10/12 00:56:39;;;;;;;18.82;11.95;;;;;;;8.76;65.91;101108.55;1691932;83;21593;-61
2022/10/12 00:59:09;;;;;;;19.12;12.00;;;;;;;8.79;65.79;101116.24;1700184;82;21141;-61
2022/10/12 01:01:36;;;;;;;17.82;11.30;;;;;;;8.86;65.58;101117.55;1696179;82;21081;-61
2022/10/12 01:04:03;;;;;;;18.98;11.00;;;;;;;8.90;65.49;101117.75;1697919;83;21465;-61
2022/10/12 01:06:30;;;;;;;21.97;11.15;;;;;;;8.88;65.54;101113.08;1692389;82;21062;-62
2022/10/12 01:08:58;;;;;;;17.50;11.68;;;;;;;8.87;65.50;101116.62;1691073;84;21043;-62
2022/10/12 01:11:24;;;;;;;23.42;12.15;;;;;;;8.86;65.46;101113.61;1693799;82;21254;-62
2022/10/12 01:13:51;;;;;;;20.57;12.65;;;;;;;8.82;65.46;101116.06;1716296;82;21036;-62
2022/10/12 01:16:30;;;;;;;18.67;11.15;;;;;;;8.77;65.61;101118.13;1691377;83;21004;-62
2022/10/12 01:19:37;;;;;;;18.80;11.50;;;;;;;8.74;65.68;101116.52;1663684;84;21593;-61
2022/10/12 01:22:10;;;;;;;18.95;10.60;;;;;;;8.80;65.71;101114.84;1663909;84;21067;-61
2022/10/12 01:24:59;;;;;;;21.50;11.35;;;;;;;8.84;65.91;101119.43;1689638;84;21088;-61
2022/10/12 01:27:49;;;;;;;19.17;11.00;;;;;;;8.82;66.05;101118.69;1670825;84;21149;-60
2022/10/12 01:30:24;;;;;;;21.33;10.70;;;;;;;8.78;66.21;101112.79;1674197;84;21125;-60
2022/10/12 01:33:18;;;;;;;13.05;5.95;;;;;;;8.74;66.34;101117.38;1636331;87;21632;-60
2022/10/12 01:36:11;;;;;;;22.00;10.28;;;;;;;8.68;66.49;101116.91;1696989;83;21662;-60
2022/10/12 01:39:00;;;;;;;17.30;10.20;;;;;;;8.62;66.98;101122.03;1673624;83;22217;-60
2022/10/12 01:41:35;;;;;;;18.12;9.75;;;;;;;8.65;67.25;101126.27;1673553;83;21005;-60
2022/10/12 01:44:02;;;;;;;11.10;4.83;;;;;;;8.67;67.29;101121.77;1675958;85;21091;-60
2022/10/12 01:46:34;;;;;;;14.60;8.95;;;;;;;8.70;67.31;101118.97;1675142;83;21075;-60
2022/10/12 01:49:01;;;;;;;15.00;10.40;;;;;;;8.68;67.30;101129.55;1679551;85;21033;-60
2022/10/12 01:51:39;;;;;;;16.27;9.83;;;;;;;8.64;67.39;101128.51;1675419;83;21218;-60
2022/10/12 01:54:23;;;;;;;19.75;9.98;;;;;;;8.61;67.45;101131.31;1669804;83;21175;-60
2022/10/12 01:57:22;;;;;;;14.18;9.08;;;;;;;8.57;67.44;101130.66;1662082;84;21090;-60
2022/10/12 02:00:11;;;;;;;16.48;9.93;;;;;;;8.53;67.27;101132.62;1677651;84;21089;-60
2022/10/12 02:03:07;;;;;;;16.35;9.63;;;;;;;8.55;67.11;101133.36;1688283;83;21075;-60
2022/10/12 02:05:43;;;;;;;17.62;9.80;;;;;;;8.55;67.11;101140.40;1673398;83;21179;-60
2022/10/12 02:08:35;;;;;;;15.30;10.18;;;;;;;8.51;67.31;101137.59;1679428;84;21538;-60
2022/10/12 02:11:12;;;;;;;15.03;9.43;;;;;;;8.47;67.47;101141.31;1678662;83;21139;-60
2022/10/12 02:13:47;;;;;;;16.73;10.45;;;;;;;8.41;67.57;101149.53;1679415;83;21475;-60
2022/10/12 02:16:18;;;;;;;12.75;8.60;;;;;;;8.35;67.83;101146.78;1679329;83;21119;-61
2022/10/12 02:18:49;;;;;;;17.77;9.45;;;;;;;8.35;67.85;101146.34;1681168;82;21075;-61
2022/10/12 02:21:20;;;;;;;15.80;8.98;;;;;;;8.41;67.88;101144.29;1674778;83;21106;-61
2022/10/12 02:23:47;;;;;;;16.02;9.43;;;;;;;8.44;67.95;101154.16;1681032;83;21679;-61
2022/10/12 02:26:14;;;;;;;14.13;9.38;;;;;;;8.43;68.14;101147.69;1680106;83;21113;-61
2022/10/12 02:28:40;;;;;;;16.32;9.63;;;;;;;8.42;68.22;101153.83;1649520;86;21074;-61
2022/10/12 02:31:21;;;;;;;16.27;9.08;;;;;;;8.38;68.35;101156.63;1652502;85;21259;-61
2022/10/12 02:33:59;;;;;;;14.25;9.55;;;;;;;8.36;68.39;101161.12;1674446;85;21519;-61
2022/10/12 02:36:40;;;;;;;14.43;9.03;;;;;;;8.41;68.33;101163.48;1655463;85;21076;-62
2022/10/12 02:39:12;;;;;;;14.95;8.93;;;;;;;8.43;68.53;101160.80;1663139;85;21101;-61
2022/10/12 02:41:47;;;;;;;14.43;9.48;;;;;;;8.41;68.85;101163.48;1657041;85;21074;-61
2022/10/12 02:44:17;;;;;;;14.87;9.75;;;;;;;8.35;69.26;101164.70;1701832;83;21493;-61
2022/10/12 02:46:44;;;;;;;16.00;9.43;;;;;;;8.33;69.53;101167.02;1655187;85;21134;-61
2022/10/12 02:49:10;;;;;;;18.75;9.55;;;;;;;8.31;69.69;101169.72;1628667;86;21089;-61
2022/10/12 02:51:39;;;;;;;16.95;10.58;;;;;;;8.36;69.64;101167.67;1628300;86;21771;-61
2022/10/12 02:54:05;;;;;;;14.78;9.43;;;;;;;8.39;69.64;101165.36;1610013;86;21439;-61
2022/10/12 02:56:31;;;;;;;14.43;9.05;;;;;;;8.38;69.82;101172.36;1645064;85;21117;-61
2022/10/12 02:58:58;;;;;;;15.08;9.40;;;;;;;8.38;69.97;101173.67;1641440;85;21122;-61
2022/10/12 03:01:24;;;;;;;14.93;8.50;;;;;;;8.36;70.08;101169.46;1625978;86;21087;-62
2022/10/12 03:03:51;;;;;;;15.83;9.08;;;;;;;8.38;70.12;101176.30;1651908;83;21100;-61
2022/10/12 03:06:19;;;;;;;13.18;8.15;;;;;;;8.43;70.17;101177.38;1676295;83;21139;-62
2022/10/12 03:08:45;;;;;;;15.63;9.33;;;;;;;8.48;70.27;101179.26;1685375;83;21845;-62
2022/10/12 03:11:13;;;;;;;14.47;8.88;;;;;;;8.48;70.42;101180.57;1675018;84;21088;-62
2022/10/12 03:13:39;;;;;;;14.90;8.98;;;;;;;8.46;70.55;101176.37;1674130;85;21112;-62
2022/10/12 03:16:08;;;;;;;13.68;8.83;;;;;;;8.41;70.72;101177.91;1681473;83;21405;-62
2022/10/12 03:18:35;;;;;;;13.65;9.38;;;;;;;8.41;70.90;101174.45;1682435;83;21149;-62
2022/10/12 03:21:03;;;;;;;25.65;9.35;;;;;;;8.46;70.83;101178.52;1670164;84;21082;-61
2022/10/12 03:23:30;;;;;;;15.13;9.50;;;;;;;8.48;70.83;101179.73;1641592;85;21038;-61
2022/10/12 03:25:57;;;;;;;14.98;9.98;;;;;;;8.47;70.99;101187.22;1677437;84;21069;-61
2022/10/12 03:28:23;;;;;;;15.18;8.63;;;;;;;8.43;71.21;101191.80;1674032;85;21560;-61
2022/10/12 03:30:50;;;;;;;15.23;9.88;;;;;;;8.40;71.51;101195.04;1670051;84;21620;-61
2022/10/12 03:33:16;;;;;;;16.15;9.30;;;;;;;8.42;71.47;101202.34;1687999;83;21741;-60
2022/10/12 03:35:44;;;;;;;13.13;9.00;;;;;;;8.42;71.48;101206.28;1695403;84;21686;-62
2022/10/12 03:38:12;;;;;;;17.10;9.98;;;;;;;8.37;71.75;101207.41;1671395;84;21034;-62
2022/10/12 03:40:38;;;;;;;13.50;9.18;;;;;;;8.34;71.96;101202.81;1647259;86;21042;-61
2022/10/12 03:43:05;;;;;;;13.88;9.23;;;;;;;8.31;71.97;101206.44;1686649;84;21105;-61
2022/10/12 03:45:32;;;;;;;18.37;10.13;;;;;;;8.33;72.09;101209.80;1677838;84;21850;-61
2022/10/12 03:47:58;;;;;;;15.93;9.75;;;;;;;8.34;72.10;101214.13;1675528;84;21133;-62
2022/10/12 03:50:25;;;;;;;12.82;8.85;;;;;;;8.31;72.37;101209.53;1674553;85;21118;-61
2022/10/12 03:52:51;;;;;;;16.23;9.58;;;;;;;8.27;72.53;101212.80;1689037;83;21090;-61
2022/10/12 03:55:19;;;;;;;16.42;9.75;;;;;;;8.26;72.61;101210.27;1683972;84;21491;-61
2022/10/12 03:57:46;;;;;;;16.95;9.95;;;;;;;8.30;72.59;101204.73;1688542;83;21150;-61
2022/10/12 04:00:14;;;;;;;15.00;10.08;;;;;;;8.32;72.69;101209.89;1687952;83;22642;-61
2022/10/12 04:02:40;;;;;;;16.27;11.35;;;;;;;8.28;73.01;101205.30;1673236;84;21090;-61
2022/10/12 04:05:08;;;;;;;14.65;10.08;;;;;;;8.25;73.10;101208.09;1671664;84;21059;-61
2022/10/12 04:07:36;;;;;;;15.58;9.88;;;;;;;8.24;73.21;101207.73;1662890;84;21085;-61
2022/10/12 04:10:04;;;;;;;15.15;9.65;;;;;;;8.27;73.17;101210.63;1664532;84;21524;-61
2022/10/12 04:12:31;;;;;;;15.45;10.35;;;;;;;8.27;73.22;101216.73;1659420;84;21090;-61
2022/10/12 04:14:58;;;;;;;13.83;10.20;;;;;;;8.24;73.33;101221.28;1676549;85;21125;-62
2022/10/12 04:17:25;;;;;;;15.65;9.88;;;;;;;8.17;73.54;101215.09;1682302;83;21103;-61
2022/10/12 04:19:52;;;;;;;17.10;10.88;;;;;;;8.15;73.69;101226.14;1674682;83;22010;-61
2022/10/12 04:22:19;;;;;;;15.50;9.65;;;;;;;8.16;73.69;101227.81;1682116;83;22316;-61
2022/10/12 04:24:46;;;;;;;16.48;10.00;;;;;;;8.15;73.72;101226.14;1677334;83;21085;-61
2022/10/12 04:27:12;;;;;;;15.00;11.12;;;;;;;8.09;73.84;101227.78;1683917;83;21122;-61
2022/10/12 04:29:39;;;;;;;16.25;9.80;;;;;;;8.05;74.07;101230.18;1679147;83;21087;-61
2022/10/12 04:32:06;;;;;;;13.98;9.43;;;;;;;8.05;74.15;101230.66;1678723;83;21125;-61
2022/10/12 04:34:34;;;;;;;12.50;9.10;;;;;;;8.08;74.13;101231.33;1674421;83;21163;-61
2022/10/12 04:37:02;;;;;;;14.87;10.05;;;;;;;8.10;74.21;101235.17;1680715;83;21091;-61
2022/10/12 04:39:29;;;;;;;16.37;10.40;;;;;;;8.07;74.47;101237.96;1694949;84;21124;-61
2022/10/12 04:41:55;;;;;;;15.72;10.32;;;;;;;8.01;74.85;101247.02;1678362;83;21070;-62
2022/10/12 04:44:22;;;;;;;15.95;10.00;;;;;;;8.00;75.00;101240.08;1672355;83;21072;-61
2022/10/12 04:46:49;;;;;;;20.45;10.05;;;;;;;8.05;74.96;101248.53;1679623;83;21546;-61
2022/10/12 04:49:15;;;;;;;17.12;11.33;;;;;;;8.05;74.99;101252.94;1684475;83;21083;-61
2022/10/12 04:51:42;;;;;;;21.07;11.20;;;;;;;8.04;75.05;101253.41;1698307;83;21060;-61
2022/10/12 04:54:11;;;;;;;16.87;11.68;;;;;;;8.01;75.17;101249.64;1713420;82;21060;-61
2022/10/12 04:56:38;;;;;;;16.60;10.72;;;;;;;8.03;75.30;101256.12;1713663;82;21069;-61
2022/10/12 04:59:04;;;;;;;17.20;11.78;;;;;;;8.08;75.29;101252.77;1693515;82;21144;-61
2022/10/12 05:01:31;;;;;;;19.52;11.53;;;;;;;8.12;75.31;101259.52;1694700;82;21074;-61
2022/10/12 05:03:59;;;;;;;17.40;10.43;;;;;;;8.13;75.49;101248.11;1694707;82;20999;-61
2022/10/12 05:06:26;;;;;;;15.80;11.12;;;;;;;8.13;75.63;101258.59;1672589;84;21029;-61
2022/10/12 05:08:52;;;;;;;17.48;10.63;;;;;;;8.16;75.64;101259.27;1673230;83;21117;-62
2022/10/12 05:11:19;;;;;;;15.72;11.12;;;;;;;8.23;75.58;101268.11;1675378;83;21417;-61
2022/10/12 05:13:47;;;;;;;16.02;11.50;;;;;;;8.27;75.50;101265.24;1692636;83;21003;-61
2022/10/12 05:16:13;;;;;;;15.58;11.05;;;;;;;8.27;75.68;101267.00;1713094;83;21097;-63
2022/10/12 05:18:40;;;;;;;15.80;10.40;;;;;;;8.25;75.75;101277.56;1685019;83;21073;-62
2022/10/12 05:21:06;;;;;;;14.38;10.15;;;;;;;8.27;75.78;101275.73;1683732;84;21061;-60
2022/10/12 05:23:33;;;;;;;19.75;11.08;;;;;;;8.35;75.65;101273.97;1674574;83;21103;-60
2022/10/12 05:25:59;;;;;;;14.38;10.28;;;;;;;8.42;75.51;101274.47;1672354;85;21073;-60
2022/10/12 05:28:26;;;;;;;17.57;11.05;;;;;;;8.45;75.63;101276.48;1671231;83;21018;-60
2022/10/12 05:30:52;;;;;;;15.13;10.15;;;;;;;8.45;75.72;101273.02;1674437;83;21156;-60
2022/10/12 05:33:19;;;;;;;14.63;10.38;;;;;;;8.51;75.75;101277.45;1684216;83;21121;-60
2022/10/12 05:35:47;;;;;;;19.32;11.48;;;;;;;8.63;75.67;101277.69;1678870;84;21127;-61
2022/10/12 05:38:14;;;;;;;14.43;10.45;;;;;;;8.70;75.61;101277.70;1674729;84;21078;-61
2022/10/12 05:40:40;;;;;;;18.12;11.50;;;;;;;8.77;75.68;101276.88;1676699;84;21117;-60
2022/10/12 05:43:07;;;;;;;17.02;10.82;;;;;;;8.84;75.60;101282.14;1673831;83;21120;-61
2022/10/12 05:45:33;;;;;;;19.37;10.78;;;;;;;8.93;75.52;101277.20;1672632;85;21674;-61
2022/10/12 05:48:00;;;;;;;16.10;11.50;;;;;;;9.06;75.21;101278.65;1678528;83;21427;-61
2022/10/12 05:50:26;;;;;;;17.15;11.80;;;;;;;9.19;74.89;101283.99;1679589;83;21076;-61
2022/10/12 05:52:53;;;;;;;17.17;11.70;;;;;;;9.29;74.83;101283.81;1673513;83;21031;-61
2022/10/12 05:55:19;;;;;;;15.35;10.75;;;;;;;9.35;74.56;101283.94;1673763;84;21058;-62
2022/10/12 05:57:48;;;;;;;17.52;10.90;;;;;;;9.43;74.31;101283.45;1672219;83;21164;-63
2022/10/12 06:00:15;;;;;;;16.35;11.50;;;;;;;9.52;73.97;101294.73;1677833;84;21084;-61
2022/10/12 06:02:41;;;;;;;14.75;11.38;;;;;;;9.57;73.76;101295.77;1676206;83;21149;-61
2022/10/12 06:05:09;;;;;;;15.48;11.15;;;;;;;9.59;73.85;101297.34;1687668;84;21079;-61
2022/10/12 06:07:37;;;;;;;14.65;10.93;;;;;;;9.64;73.78;101307.10;1696624;82;21121;-61
2022/10/12 06:10:06;;;;;;;16.40;10.95;;;;;;;9.70;73.73;101309.84;1678453;84;21121;-61
2022/10/12 06:12:33;;;;;;;16.02;11.12;;;;;;;9.83;73.51;101313.85;1679609;83;21179;-61
2022/10/12 06:14:59;;;;;;;18.82;12.80;;;;;;;9.97;73.52;101313.85;1676836;83;21083;-58
2022/10/12 06:17:26;;;;;;;15.38;12.05;;;;;;;10.07;72.87;101315.89;1669304;83;21043;-58
2022/10/12 06:19:52;;;;;;;18.37;11.40;;;;;;;10.11;72.46;101317.40;1667965;83;21106;-58
2022/10/12 06:22:18;;;;;;;17.77;10.98;;;;;;;10.19;72.08;101325.17;1670340;83;21138;-62
2022/10/12 06:24:46;;;;;;;16.00;11.70;;;;;;;10.30;71.81;101325.79;1673933;83;21241;-58
2022/10/12 06:27:13;;;;;;;15.45;11.38;;;;;;;10.40;71.39;101326.08;1672877;83;21068;-58
2022/10/12 06:29:39;;;;;;;23.32;13.35;;;;;;;10.47;71.19;101327.84;1669366;84;21069;-58
2022/10/12 06:32:06;;;;;;;19.90;12.28;;;;;;;10.49;70.64;101322.88;1677967;83;21075;-58
2022/10/12 06:34:33;;;;;;;14.90;11.40;;;;;;;10.52;70.56;101328.39;1676153;85;21092;-59
2022/10/12 06:36:59;;;;;;;15.83;11.93;;;;;;;10.62;70.49;101335.23;1687032;84;21247;-59
2022/10/12 06:39:26;;;;;;;21.87;13.25;;;;;;;10.70;70.44;101335.09;1671383;85;21103;-59
2022/10/12 06:41:53;;;;;;;19.60;13.62;;;;;;;10.77;70.38;101336.38;1675512;83;21069;-59
2022/10/12 06:44:21;;;;;;;18.62;12.05;;;;;;;10.84;70.00;101336.81;1659963;84;21081;-59
2022/10/12 06:46:49;;;;;;;17.17;12.50;;;;;;;10.90;69.81;101338.22;1689397;84;21058;-59
2022/10/12 06:49:16;;;;;;;23.07;13.03;;;;;;;10.99;69.57;101337.59;1688623;83;21192;-59
2022/10/12 06:51:43;;;;;;;21.17;12.43;;;;;;;11.10;69.25;101341.67;1662715;85;21134;-60
2022/10/12 06:54:09;;;;;;;22.77;13.53;;;;;;;11.14;69.13;101340.99;1676204;83;21508;-60
2022/10/12 06:56:38;;;;;;;17.57;12.45;;;;;;;11.18;68.74;101341.17;1669277;85;21100;-59
2022/10/12 06:59:05;;;;;;;23.22;13.10;;;;;;;11.20;68.73;101343.23;1653131;84;21108;-59
2022/10/12 07:01:31;;;;;;;21.80;13.85;;;;;;;11.31;68.70;101349.07;1678194;85;21206;-59
2022/10/12 07:03:58;;;;;;;18.20;13.40;;;;;;;11.39;68.23;101345.93;1673525;83;21090;-60
2022/10/12 07:06:24;;;;;;;20.52;14.13;;;;;;;11.43;67.90;101336.40;1658547;85;21145;-59
2022/10/12 07:08:53;;;;;;;21.97;15.13;;;;;;;11.49;67.70;101345.19;1650845;85;21741;-60
2022/10/12 07:11:20;;;;;;;21.15;16.23;;;;;;;11.53;67.82;101349.77;1663837;84;21431;-59
2022/10/12 07:13:48;;;;;;;20.17;14.38;;;;;;;11.57;67.54;101350.42;1674515;84;21054;-59
2022/10/12 07:16:16;;;;;;;23.60;12.98;;;;;;;11.65;67.51;101349.39;1677719;84;21684;-59
2022/10/12 07:18:42;;;;;;;20.15;12.60;;;;;;;11.75;67.40;101357.52;1673416;84;21582;-60
2022/10/12 07:21:10;;;;;;;19.32;12.23;;;;;;;11.82;67.52;101353.52;1680814;84;21039;-58
2022/10/12 07:23:37;;;;;;;17.25;11.75;;;;;;;11.88;66.98;101351.30;1686984;82;21089;-58
2022/10/12 07:26:05;;;;;;;19.12;11.65;;;;;;;11.90;66.79;101353.34;1681275;84;21241;-59
2022/10/12 07:28:33;;;;;;;18.00;11.60;;;;;;;11.99;66.39;101355.84;1677179;84;21133;-58
2022/10/12 07:31:05;;;;;;;17.87;12.88;;;;;;;12.02;66.60;101348.17;1644340;85;21099;-58
2022/10/12 07:33:33;;;;;;;17.27;11.90;;;;;;;12.08;66.35;101349.90;1648088;85;21163;-58
2022/10/12 07:36:01;;;;;;;17.62;12.58;;;;;;;12.13;66.08;101353.53;1643206;85;21106;-59
2022/10/12 07:38:28;;;;;;;19.60;11.63;;;;;;;12.17;65.77;101356.34;1646400;85;21864;-58
2022/10/12 07:41:00;;;;;;;19.95;12.60;;;;;;;12.28;65.71;101368.75;1672624;85;21115;-58
2022/10/12 07:43:28;;;;;;;15.18;11.53;;;;;;;12.37;65.14;101368.11;1676439;84;21041;-58
2022/10/12 07:45:55;;;;;;;17.70;13.03;;;;;;;12.40;64.58;101362.59;1677562;84;21119;-58
2022/10/12 07:48:21;;;;;;;19.05;11.78;;;;;;;12.40;64.53;101360.43;1672574;84;21129;-58
2022/10/12 07:50:48;;;;;;;17.27;12.00;;;;;;;12.41;64.80;101362.97;1668905;84;21995;-57
2022/10/12 07:53:16;;;;;;;18.70;10.90;;;;;;;12.47;64.60;101367.43;1641074;85;21082;-58
2022/10/12 07:55:43;;;;;;;17.12;11.08;;;;;;;12.59;64.52;101366.53;1641599;85;21171;-58
2022/10/12 07:58:09;;;;;;;16.02;10.25;;;;;;;12.63;64.39;101363.56;1656145;85;21518;-58
2022/10/12 08:00:36;;;;;;;18.48;11.48;;;;;;;12.67;64.14;101364.17;1681607;82;21109;-59
2022/10/12 08:03:03;;;;;;;20.25;11.20;;;;;;;12.70;64.21;101365.77;1677716;84;21280;-58
2022/10/12 08:05:30;;;;;;;16.37;10.58;;;;;;;12.77;64.14;101366.50;1680717;84;21039;-58
2022/10/12 08:07:58;;;;;;;14.63;10.65;;;;;;;12.91;63.75;101364.64;1691123;83;21085;-58
2022/10/12 08:22:59;;;;;;;16.05;10.38;;;;;;;13.96;60.60;101358.03;1829061;76;22597;-59
2022/10/12 08:25:27;;;;;;;18.25;10.48;;;;;;;14.06;60.82;101364.27;1824819;78;21077;-59
2022/10/12 08:27:53;;;;;;;18.23;10.78;;;;;;;14.06;60.74;101365.59;1821243;77;21230;-58
2022/10/12 08:30:25;;;;;;;15.40;10.00;;;;;;;14.06;61.04;101364.27;1793040;80;20939;-58
2022/10/12 08:32:48;;;;;;;16.35;10.35;;;;;;;14.02;60.81;101366.78;1799301;78;21101;-58
2022/10/12 08:35:16;;;;;;;25.40;10.90;;;;;;;13.97;60.11;101358.38;1787483;78;21093;-58
2022/10/12 08:37:42;;;;;;;13.93;9.88;;;;;;;13.92;60.64;101366.20;1818771;77;20979;-58
2022/10/12 08:40:24;;;;;;;14.68;9.50;;;;;;;13.86;60.61;101362.70;1821702;78;21298;-58
2022/10/12 08:43:28;;;;;;;13.30;8.28;;;;;;;13.78;59.71;101364.27;1797775;77;21005;-60
2022/10/12 08:45:56;;;;;;;13.98;9.50;;;;;;;13.78;60.45;101362.46;1793945;78;21093;-60
2022/10/12 08:48:27;;;;;;;15.18;8.30;;;;;;;13.83;59.28;101364.75;1802050;78;21002;-60
2022/10/12 08:51:03;;;;;;;11.57;7.87;;;;;;;13.87;59.44;101368.38;1808855;78;21052;-60
2022/10/12 08:53:37;;;;;;;11.73;7.97;;;;;;;13.90;59.61;101365.48;1794783;78;25741;-60
2022/10/12 08:56:05;;;;;;;15.30;8.73;;;;;;;13.96;59.41;101367.29;1801142;78;21007;-59
2022/10/12 08:58:36;;;;;;;15.95;9.03;;;;;;;14.02;59.68;101369.43;1808437;77;20980;-60
2022/10/12 09:01:37;;;;;;;13.75;7.80;;;;;;;14.06;59.28;101372.21;1817741;77;21035;-60
2022/10/12 09:04:58;;;;;;;11.70;7.87;;;;;;;14.04;59.19;101368.85;1825085;78;20991;-62
2022/10/12 09:07:33;;;;;;;14.43;8.33;;;;;;;14.07;59.25;101370.77;1751637;80;21066;-58
2022/10/12 09:10:15;;;;;;;11.65;8.45;;;;;;;14.13;58.81;101358.35;1816237;78;21003;-59
2022/10/12 09:13:02;;;;;;;13.62;8.75;;;;;;;14.11;58.58;101367.39;1802974;77;21166;-60
2022/10/12 09:15:32;;;;;;;15.43;8.68;;;;;;;14.11;58.80;101368.72;1810614;78;21076;-60
2022/10/12 09:18:00;;;;;;;15.50;7.92;;;;;;;14.10;58.30;101365.70;1819409;77;21003;-60
2022/10/12 09:20:42;;;;;;;12.73;8.18;;;;;;;14.07;57.91;101364.16;1816748;78;21230;-60
2022/10/12 09:23:25;;;;;;;12.35;7.80;;;;;;;14.11;58.35;101364.75;1776429;80;21477;-58
2022/10/12 09:25:54;;;;;;;15.30;7.97;;;;;;;14.12;57.94;101361.12;1775405;80;21006;-60
2022/10/12 09:28:36;;;;;;;13.10;7.83;;;;;;;14.16;57.43;101363.06;1782068;79;21121;-60
2022/10/12 09:31:27;;;;;;;13.55;8.10;;;;;;;14.17;57.44;101364.27;1762859;80;21049;-59
2022/10/12 09:33:56;;;;;;;8.93;6.40;;;;;;;14.22;56.92;101363.88;1790299;79;21982;-60
2022/10/12 09:36:25;;;;;;;11.03;6.95;;;;;;;14.25;56.35;101363.15;1776059;80;21061;-61
2022/10/12 09:38:52;;;;;;;13.08;7.50;;;;;;;14.31;56.52;101356.54;1768287;79;21073;-59
2022/10/12 09:41:23;;;;;;;11.63;6.70;;;;;;;14.36;55.74;101354.86;1785287;80;21046;-60
2022/10/12 09:43:55;;;;;;;13.20;6.17;;;;;;;14.41;56.35;101358.80;1783922;79;21446;-60
2022/10/12 09:46:36;;;;;;;9.95;6.28;;;;;;;14.50;55.59;101351.91;1789664;79;21135;-59
2022/10/12 09:49:03;;;;;;;13.88;7.33;;;;;;;14.60;54.76;101365.28;1783310;80;21062;-60
2022/10/12 09:51:31;;;;;;;12.85;6.75;;;;;;;14.65;55.02;101361.28;1783492;80;20987;-60
2022/10/12 09:54:02;;;;;;;10.53;5.67;;;;;;;14.73;54.13;101361.99;1782932;80;20979;-60
2022/10/12 09:56:29;;;;;;;10.90;6.85;;;;;;;14.79;54.00;101360.17;1779894;80;21026;-59
2022/10/12 09:59:00;;;;;;;13.20;7.08;;;;;;;14.92;54.24;101362.63;1778739;80;21100;-59
2022/10/12 10:01:28;;;;;;;10.72;6.85;;;;;;;15.00;53.27;101356.21;1793645;80;21065;-60
2022/10/12 10:04:25;;;;;;;10.65;5.30;;;;;;;15.03;53.68;101355.96;1775469;79;21504;-59
2022/10/12 10:06:53;;;;;;;10.93;6.03;;;;;;;15.07;52.38;101355.71;1749949;81;21116;-59
2022/10/12 10:09:33;;;;;;;12.75;4.78;;;;;;;15.04;52.44;101354.14;1716550;82;21066;-61
2022/10/12 10:12:25;;;;;;;15.32;6.20;;;;;;;14.99;52.46;101347.06;1718201;82;21228;-60
2022/10/12 10:14:58;;;;;;;8.95;5.17;;;;;;;14.91;52.52;101353.02;1705339;82;21070;-60
2022/10/12 10:17:28;;;;;;;11.30;4.75;;;;;;;14.86;52.83;101348.09;1725613;81;21034;-59
2022/10/12 10:19:56;;;;;;;9.25;4.83;;;;;;;14.89;52.82;101349.63;1720141;82;21541;-60
2022/10/12 10:22:24;;;;;;;11.50;4.70;;;;;;;14.97;52.60;101345.86;1723268;81;21100;-59
2022/10/12 10:24:53;;;;;;;8.80;4.37;;;;;;;15.08;52.66;101342.80;1730265;81;21291;-60
2022/10/12 10:27:38;;;;;;;7.87;3.77;;;;;;;15.14;51.09;101336.49;1732297;82;21050;-59
2022/10/12 10:30:20;;;;;;;6.90;3.58;;;;;;;15.16;50.80;101341.20;1734454;81;21520;-59
2022/10/12 10:32:48;;;;;;;7.90;3.67;;;;;;;15.18;50.69;101337.07;1764387;80;20995;-59
2022/10/12 10:35:37;;;;;;;9.98;4.03;;;;;;;15.19;49.92;101338.77;1767404;79;21068;-60
2022/10/12 10:38:14;;;;;;;9.00;3.40;;;;;;;15.17;49.81;101340.71;1756830;80;21135;-60
2022/10/12 10:40:41;;;;;;;13.58;4.08;;;;;;;15.18;49.32;101340.59;1764512;80;21120;-59
2022/10/12 10:43:26;;;;;;;10.10;3.85;;;;;;;15.14;48.53;101333.01;1752766;80;21060;-59
2022/10/12 10:45:56;;;;;;;9.85;3.85;;;;;;;15.11;48.88;101344.70;1766085;80;21053;-59
2022/10/12 10:48:31;;;;;;;8.53;3.85;;;;;;;15.08;48.73;101340.14;1754249;80;21057;-58
2022/10/12 10:51:00;;;;;;;9.80;3.75;;;;;;;15.06;49.50;101340.27;1757676;80;21290;-59
2022/10/12 10:53:32;;;;;;;7.30;3.22;;;;;;;15.10;49.75;101344.36;1757880;80;21065;-59
2022/10/12 10:56:10;;;;;;;11.00;3.60;;;;;;;15.13;48.90;101344.11;1755202;80;21099;-60
2022/10/12 10:58:42;;;;;;;9.93;3.67;;;;;;;15.15;48.59;101341.33;1755189;80;20990;-60
2022/10/12 11:01:36;;;;;;;6.55;2.62;;;;;;;15.14;48.43;101343.13;1754718;81;21069;-60
2022/10/12 11:04:16;;;;;;;10.48;3.00;;;;;;;15.13;48.46;101348.55;1755105;81;21247;-59
2022/10/12 11:06:46;;;;;;;8.73;3.47;;;;;;;15.12;48.99;101349.54;1743424;82;21106;-59
2022/10/12 11:09:19;;;;;;;7.12;3.10;;;;;;;15.10;48.54;101344.86;1744108;81;21085;-59
2022/10/12 11:11:56;;;;;;;10.93;3.23;;;;;;;15.09;48.37;101345.81;1732348;80;21073;-59
2022/10/12 11:14:28;;;;;;;7.80;3.22;;;;;;;15.06;47.62;101344.25;1729649;81;21070;-58
2022/10/12 11:17:08;;;;;;;9.78;3.42;;;;;;;15.06;47.62;101344.25;1730190;81;21069;-58
2022/10/12 11:20:02;;;;;;;10.45;3.52;;;;;;;15.07;48.18;101344.61;1725412;81;21176;-58
2022/10/12 11:22:40;;;;;;;7.65;2.30;;;;;;;15.10;47.52;101340.88;1759008;81;21071;-59
2022/10/12 11:25:42;;;;;;;11.90;3.20;;;;;;;15.15;47.21;101337.36;1785935;80;21478;-60
2022/10/12 11:28:10;;;;;;;8.10;2.70;;;;;;;15.19;46.83;101343.57;1785087;80;21085;-59
2022/10/12 11:30:44;;;;;;;7.47;2.77;;;;;;;15.23;46.27;101341.50;1774321;80;21192;-58
2022/10/12 11:33:22;;;;;;;10.35;2.75;;;;;;;15.24;46.63;101331.26;1734553;80;21045;-59
2022/10/12 11:35:49;;;;;;;8.30;3.02;;;;;;;15.28;46.42;101338.47;1777798;79;21029;-58
2022/10/12 11:38:33;;;;;;;7.25;2.45;;;;;;;15.29;46.27;101339.66;1779459;78;21055;-59
2022/10/12 11:41:15;;;;;;;7.10;3.02;;;;;;;15.30;45.58;101335.19;1769975;80;21018;-58
2022/10/12 11:44:06;;;;;;;8.48;2.75;;;;;;;15.33;45.55;101337.59;1776411;80;21213;-59
2022/10/12 11:46:38;;;;;;;7.62;2.42;;;;;;;15.40;44.43;101327.66;1786218;80;21029;-58
2022/10/12 11:49:37;;;;;;;7.53;2.52;;;;;;;15.46;43.77;101323.63;1738805;81;21552;-59
2022/10/12 11:52:10;;;;;;;7.65;2.45;;;;;;;15.44;42.58;101323.42;1744966;81;21070;-58